createdAt,value
2023-01-27T00:00:15.000Z,96.1
2023-01-27T00:01:30.000Z,96.2
2023-01-27T00:02:47.000Z,96.3
2023-01-27T00:04:03.000Z,96.3
2023-01-27T00:05:19.000Z,96.5
2023-01-27T00:06:35.000Z,96.7
2023-01-27T00:07:52.000Z,97
2023-01-27T00:09:08.000Z,97
2023-01-27T00:10:24.000Z,96.9
2023-01-27T00:11:40.000Z,97.2
2023-01-27T00:12:57.000Z,97.1
2023-01-27T00:14:13.000Z,96.9
2023-01-27T00:15:29.000Z,96.9
2023-01-27T00:16:45.000Z,97
2023-01-27T00:18:00.000Z,97.2
2023-01-27T00:19:17.000Z,97
2023-01-27T00:20:33.000Z,97.1
2023-01-27T00:21:49.000Z,97.1
2023-01-27T00:23:05.000Z,97.1
2023-01-27T00:24:22.000Z,96.9
2023-01-27T00:25:38.000Z,97
2023-01-27T00:26:54.000Z,97
2023-01-27T00:28:10.000Z,97.3
2023-01-27T00:29:27.000Z,97.1
2023-01-27T00:30:43.000Z,96.9
2023-01-27T00:31:59.000Z,97.1
2023-01-27T00:33:15.000Z,97.2
2023-01-27T00:34:31.000Z,97.2
2023-01-27T00:35:47.000Z,97.5
2023-01-27T00:37:03.000Z,97.2
2023-01-27T00:38:19.000Z,97.3
2023-01-27T00:39:35.000Z,97.2
2023-01-27T00:40:52.000Z,97.5
2023-01-27T00:42:08.000Z,97.9
2023-01-27T00:43:24.000Z,98
2023-01-27T00:44:40.000Z,98.1
2023-01-27T00:45:57.000Z,98.3
2023-01-27T00:47:13.000Z,98.6
2023-01-27T00:48:29.000Z,99
2023-01-27T00:49:45.000Z,99.2
2023-01-27T00:51:01.000Z,99.2
2023-01-27T00:52:17.000Z,99.5
2023-01-27T00:53:33.000Z,99.4
2023-01-27T00:54:49.000Z,99.8
2023-01-27T00:56:06.000Z,99.8
2023-01-27T00:57:22.000Z,99.8
2023-01-27T00:58:38.000Z,99.8
2023-01-27T00:59:54.000Z,99.8
2023-01-27T01:01:10.000Z,100
2023-01-27T01:02:27.217Z,100
2023-01-27T01:03:43.000Z,100
2023-01-27T01:04:59.000Z,100
2023-01-27T01:06:15.000Z,100
2023-01-27T01:07:31.000Z,100
2023-01-27T01:08:47.000Z,100
2023-01-27T01:10:03.000Z,100
2023-01-27T01:12:36.000Z,100
2023-01-27T01:13:52.000Z,100
2023-01-27T01:15:08.000Z,100
2023-01-27T01:16:24.000Z,100
2023-01-27T01:17:41.000Z,100
2023-01-27T01:18:57.000Z,100
2023-01-27T01:20:13.000Z,100
2023-01-27T01:21:29.000Z,100
2023-01-27T01:22:45.000Z,100
2023-01-27T01:24:01.000Z,100
2023-01-27T01:25:17.000Z,100
2023-01-27T01:26:33.000Z,100
2023-01-27T01:27:49.000Z,100
2023-01-27T01:29:06.000Z,100
2023-01-27T01:30:22.000Z,100
2023-01-27T01:31:38.000Z,100
2023-01-27T01:32:54.000Z,100
2023-01-27T01:34:11.000Z,100
2023-01-27T01:35:27.000Z,100
2023-01-27T01:36:43.000Z,100
2023-01-27T01:37:59.000Z,100
2023-01-27T01:39:16.000Z,100
2023-01-27T01:40:31.000Z,100
2023-01-27T01:41:47.000Z,100
2023-01-27T01:43:03.000Z,100
2023-01-27T01:44:19.000Z,100
2023-01-27T01:45:36.000Z,100
2023-01-27T01:46:52.000Z,100
2023-01-27T01:48:08.000Z,100
2023-01-27T01:50:41.000Z,100
2023-01-27T01:51:57.000Z,100
2023-01-27T01:53:13.000Z,100
2023-01-27T01:54:29.000Z,100
2023-01-27T01:55:46.000Z,100
2023-01-27T01:57:01.000Z,100
2023-01-27T01:58:17.000Z,100
2023-01-27T01:59:33.000Z,100
2023-01-27T02:00:50.000Z,100
2023-01-27T02:02:06.000Z,100
2023-01-27T02:03:22.000Z,100
2023-01-27T02:04:38.000Z,100
2023-01-27T02:05:54.000Z,100
2023-01-27T02:07:09.000Z,100
2023-01-27T02:08:24.000Z,100
2023-01-27T02:09:39.000Z,100
2023-01-27T02:10:56.000Z,100
2023-01-27T02:12:12.000Z,100
2023-01-27T02:13:28.000Z,100
2023-01-27T02:14:44.000Z,100
2023-01-27T02:16:00.000Z,100
2023-01-27T02:17:17.000Z,100
2023-01-27T02:18:33.000Z,100
2023-01-27T02:19:49.000Z,100
2023-01-27T02:21:05.000Z,100
2023-01-27T02:22:22.000Z,100
2023-01-27T02:23:38.000Z,100
2023-01-27T02:24:54.000Z,100
2023-01-27T02:26:09.000Z,100
2023-01-27T02:28:42.000Z,100
2023-01-27T02:29:58.000Z,100
2023-01-27T02:31:14.000Z,100
2023-01-27T02:32:31.000Z,100
2023-01-27T02:33:47.000Z,100
2023-01-27T02:35:03.000Z,100
2023-01-27T02:36:18.000Z,100
2023-01-27T02:37:34.000Z,100
2023-01-27T02:38:50.000Z,100
2023-01-27T02:40:05.000Z,100
2023-01-27T02:41:20.000Z,100
2023-01-27T02:42:36.000Z,100
2023-01-27T02:45:09.000Z,100
2023-01-27T02:46:25.000Z,100
2023-01-27T02:47:41.000Z,100
2023-01-27T02:48:58.000Z,100
2023-01-27T02:50:14.000Z,100
2023-01-27T02:51:30.000Z,100
2023-01-27T02:52:46.000Z,100
2023-01-27T02:54:02.000Z,100
2023-01-27T02:55:18.000Z,100
2023-01-27T02:56:34.000Z,100
2023-01-27T02:57:50.000Z,100
2023-01-27T02:59:07.000Z,100
2023-01-27T03:00:23.000Z,100
2023-01-27T03:01:39.000Z,100
2023-01-27T03:02:55.000Z,100
2023-01-27T03:04:12.000Z,100
2023-01-27T03:05:28.000Z,100
2023-01-27T03:06:44.000Z,100
2023-01-27T03:07:59.000Z,100
2023-01-27T03:09:14.000Z,100
2023-01-27T03:10:31.000Z,100
2023-01-27T03:11:47.000Z,100
2023-01-27T03:13:03.000Z,100
2023-01-27T03:14:19.000Z,100
2023-01-27T03:15:36.000Z,100
2023-01-27T03:16:52.000Z,100
2023-01-27T03:18:08.000Z,100
2023-01-27T03:19:24.000Z,100
2023-01-27T03:20:41.000Z,100
2023-01-27T03:21:57.000Z,100
2023-01-27T03:23:13.000Z,100
2023-01-27T03:24:29.000Z,100
2023-01-27T03:25:45.000Z,100
2023-01-27T03:27:01.000Z,100
2023-01-27T03:28:17.000Z,100
2023-01-27T03:29:33.000Z,100
2023-01-27T03:30:49.000Z,100
2023-01-27T03:32:06.000Z,100
2023-01-27T03:33:22.000Z,100
2023-01-27T03:35:53.000Z,100
2023-01-27T03:37:09.000Z,100
2023-01-27T03:38:24.000Z,100
2023-01-27T03:39:40.000Z,100
2023-01-27T03:40:55.000Z,100
2023-01-27T03:42:11.000Z,100
2023-01-27T03:43:26.000Z,100
2023-01-27T03:44:41.000Z,100
2023-01-27T03:45:57.000Z,100
2023-01-27T03:47:14.000Z,100
2023-01-27T03:48:30.000Z,100
2023-01-27T03:49:46.000Z,100
2023-01-27T03:51:02.000Z,100
2023-01-27T03:52:19.000Z,100
2023-01-27T03:53:35.000Z,100
2023-01-27T03:54:51.000Z,100
2023-01-27T03:56:07.000Z,100
2023-01-27T03:57:24.000Z,100
2023-01-27T03:58:40.000Z,100
2023-01-27T03:59:56.000Z,100
2023-01-27T04:01:11.000Z,100
2023-01-27T04:02:28.000Z,100
2023-01-27T04:03:44.000Z,100
2023-01-27T04:05:00.000Z,100
2023-01-27T04:06:16.000Z,100
2023-01-27T04:07:32.000Z,100
2023-01-27T04:08:49.000Z,100
2023-01-27T04:10:05.000Z,100
2023-01-27T04:11:21.000Z,100
2023-01-27T04:12:37.000Z,100
2023-01-27T04:13:54.000Z,100
2023-01-27T04:15:10.000Z,100
2023-01-27T04:16:26.000Z,100
2023-01-27T04:17:41.000Z,100
2023-01-27T04:18:58.000Z,100
2023-01-27T04:20:14.000Z,100
2023-01-27T04:21:30.000Z,100
2023-01-27T04:22:46.000Z,100
2023-01-27T04:24:03.000Z,100
2023-01-27T04:25:19.000Z,100
2023-01-27T04:26:35.000Z,100
2023-01-27T04:27:51.000Z,100
2023-01-27T04:29:07.000Z,100
2023-01-27T04:30:24.000Z,100
2023-01-27T04:31:40.000Z,100
2023-01-27T04:32:56.000Z,100
2023-01-27T04:34:11.000Z,100
2023-01-27T04:35:28.000Z,100
2023-01-27T04:36:44.000Z,100
2023-01-27T04:37:59.000Z,100
2023-01-27T04:39:14.000Z,100
2023-01-27T04:40:30.000Z,100
2023-01-27T04:41:45.000Z,100
2023-01-27T04:43:01.000Z,100
2023-01-27T04:44:17.000Z,100
2023-01-27T04:45:34.000Z,100
2023-01-27T04:46:50.000Z,100
2023-01-27T04:48:06.000Z,100
2023-01-27T04:49:22.000Z,100
2023-01-27T04:50:39.000Z,100
2023-01-27T04:51:55.000Z,100
2023-01-27T04:53:11.000Z,100
2023-01-27T04:54:27.000Z,100
2023-01-27T04:55:44.000Z,100
2023-01-27T04:57:00.000Z,100
2023-01-27T04:58:15.000Z,100
2023-01-27T04:59:31.000Z,100
2023-01-27T05:00:47.000Z,100
2023-01-27T05:02:04.000Z,100
2023-01-27T05:03:20.000Z,100
2023-01-27T05:04:36.000Z,100
2023-01-27T05:05:52.000Z,100
2023-01-27T05:07:09.000Z,100
2023-01-27T05:08:25.000Z,100
2023-01-27T05:09:41.000Z,100
2023-01-27T05:10:57.000Z,100
2023-01-27T05:12:14.000Z,100
2023-01-27T05:13:30.000Z,100
2023-01-27T05:14:45.000Z,100
2023-01-27T05:16:01.000Z,100
2023-01-27T05:17:18.000Z,100
2023-01-27T05:18:34.000Z,100
2023-01-27T05:19:50.000Z,100
2023-01-27T05:21:06.000Z,100
2023-01-27T05:22:22.000Z,100
2023-01-27T05:23:39.000Z,100
2023-01-27T05:24:55.000Z,100
2023-01-27T05:26:11.000Z,100
2023-01-27T05:27:27.000Z,100
2023-01-27T05:28:44.000Z,100
2023-01-27T05:30:00.000Z,100
2023-01-27T05:31:15.000Z,100
2023-01-27T05:32:31.000Z,100
2023-01-27T05:33:48.000Z,100
2023-01-27T05:35:04.000Z,100
2023-01-27T05:36:20.000Z,100
2023-01-27T05:38:53.000Z,100
2023-01-27T05:40:09.000Z,100
2023-01-27T05:41:25.000Z,100
2023-01-27T05:42:41.000Z,100
2023-01-27T05:43:57.000Z,100
2023-01-27T05:45:14.000Z,100
2023-01-27T05:46:30.000Z,100
2023-01-27T05:47:45.000Z,100
2023-01-27T05:49:01.000Z,100
2023-01-27T05:50:18.000Z,100
2023-01-27T05:51:34.000Z,100
2023-01-27T05:52:50.000Z,100
2023-01-27T05:54:06.000Z,100
2023-01-27T05:55:23.000Z,100
2023-01-27T05:56:39.000Z,100
2023-01-27T05:57:55.000Z,100
2023-01-27T05:59:11.000Z,100
2023-01-27T06:00:28.000Z,100
2023-01-27T06:01:44.000Z,100
2023-01-27T06:03:00.000Z,100
2023-01-27T06:04:15.000Z,100
2023-01-27T06:05:31.000Z,100
2023-01-27T06:06:48.000Z,100
2023-01-27T06:08:04.000Z,100
2023-01-27T06:09:20.000Z,100
2023-01-27T06:10:36.000Z,100
2023-01-27T06:11:53.000Z,100
2023-01-27T06:13:08.000Z,100
2023-01-27T06:14:23.000Z,100
2023-01-27T06:15:38.000Z,100
2023-01-27T06:16:54.000Z,100
2023-01-27T06:18:10.000Z,100
2023-01-27T06:19:26.000Z,100
2023-01-27T06:20:42.000Z,100
2023-01-27T06:21:59.000Z,100
2023-01-27T06:23:15.000Z,100
2023-01-27T06:24:31.000Z,100
2023-01-27T06:25:47.000Z,100
2023-01-27T06:27:04.000Z,100
2023-01-27T06:29:36.000Z,100
2023-01-27T06:30:52.000Z,100
2023-01-27T06:32:08.000Z,100
2023-01-27T06:33:24.000Z,100
2023-01-27T06:34:40.000Z,100
2023-01-27T06:35:56.000Z,100
2023-01-27T06:37:12.000Z,100
2023-01-27T06:38:29.000Z,100
2023-01-27T06:39:45.000Z,100
2023-01-27T06:41:01.000Z,100
2023-01-27T06:42:17.000Z,100
2023-01-27T06:43:33.000Z,100
2023-01-27T06:44:49.000Z,100
2023-01-27T06:46:04.000Z,100
2023-01-27T06:47:20.000Z,100
2023-01-27T06:48:37.000Z,100
2023-01-27T06:49:53.000Z,100
2023-01-27T06:51:09.000Z,100
2023-01-27T06:52:25.000Z,100
2023-01-27T06:53:41.000Z,100
2023-01-27T06:54:56.000Z,100
2023-01-27T06:56:12.000Z,100
2023-01-27T06:57:28.000Z,100
2023-01-27T06:58:45.000Z,100
2023-01-27T07:00:01.000Z,100
2023-01-27T07:01:17.000Z,100
2023-01-27T07:02:33.000Z,100
2023-01-27T07:03:49.000Z,100
2023-01-27T07:05:06.000Z,100
2023-01-27T07:06:22.000Z,100
2023-01-27T07:07:38.000Z,100
2023-01-27T07:08:53.000Z,100
2023-01-27T07:10:10.000Z,100
2023-01-27T07:11:26.000Z,100
2023-01-27T07:12:42.000Z,100
2023-01-27T07:13:58.000Z,100
2023-01-27T07:15:15.000Z,100
2023-01-27T07:16:31.000Z,100
2023-01-27T07:17:47.000Z,100
2023-01-27T07:19:03.000Z,100
2023-01-27T07:20:20.000Z,100
2023-01-27T07:21:36.000Z,100
2023-01-27T07:22:52.000Z,100
2023-01-27T07:24:08.000Z,100
2023-01-27T07:25:23.000Z,100
2023-01-27T07:26:40.000Z,100
2023-01-27T07:27:56.000Z,100
2023-01-27T07:29:11.000Z,100
2023-01-27T07:30:26.000Z,100
2023-01-27T07:31:43.000Z,100
2023-01-27T07:32:59.000Z,100
2023-01-27T07:34:15.000Z,100
2023-01-27T07:35:31.000Z,100
2023-01-27T07:36:48.000Z,100
2023-01-27T07:38:04.000Z,100
2023-01-27T07:39:20.000Z,100
2023-01-27T07:40:36.000Z,100
2023-01-27T07:41:53.000Z,100
2023-01-27T07:43:09.000Z,100
2023-01-27T07:44:24.000Z,100
2023-01-27T07:45:40.000Z,100
2023-01-27T07:46:56.000Z,100
2023-01-27T07:48:12.000Z,100
2023-01-27T07:49:28.000Z,100
2023-01-27T07:50:44.000Z,100
2023-01-27T07:52:00.000Z,100
2023-01-27T07:53:17.000Z,100
2023-01-27T07:54:33.000Z,100
2023-01-27T07:55:49.000Z,100
2023-01-27T07:57:05.000Z,100
2023-01-27T07:58:22.000Z,100
2023-01-27T07:59:38.000Z,100
2023-01-27T08:00:54.000Z,100
2023-01-27T08:02:10.000Z,100
2023-01-27T08:03:26.000Z,100
2023-01-27T08:04:42.000Z,100
2023-01-27T08:05:58.000Z,100
2023-01-27T08:07:14.000Z,100
2023-01-27T08:08:31.000Z,100
2023-01-27T08:09:47.000Z,100
2023-01-27T08:11:02.000Z,100
2023-01-27T08:12:17.000Z,100
2023-01-27T08:13:33.000Z,100
2023-01-27T08:14:48.000Z,100
2023-01-27T08:16:04.000Z,100
2023-01-27T08:17:20.000Z,100
2023-01-27T08:18:37.000Z,100
2023-01-27T08:19:53.000Z,100
2023-01-27T08:21:09.000Z,100
2023-01-27T08:22:25.000Z,100
2023-01-27T08:23:41.000Z,100
2023-01-27T08:24:58.000Z,100
2023-01-27T08:26:14.000Z,100
2023-01-27T08:27:30.000Z,100
2023-01-27T08:28:46.000Z,100
2023-01-27T08:30:03.000Z,100
2023-01-27T08:31:18.000Z,100
2023-01-27T08:32:34.000Z,100
2023-01-27T08:33:50.000Z,100
2023-01-27T08:35:07.000Z,100
2023-01-27T08:36:23.000Z,100
2023-01-27T08:37:39.000Z,100
2023-01-27T08:38:55.000Z,100
2023-01-27T08:40:12.000Z,100
2023-01-27T08:41:28.000Z,100
2023-01-27T08:42:44.000Z,100
2023-01-27T08:44:00.000Z,100
2023-01-27T08:45:16.000Z,100
2023-01-27T08:46:33.000Z,100
2023-01-27T08:47:48.000Z,100
2023-01-27T08:49:04.000Z,100
2023-01-27T08:50:20.000Z,100
2023-01-27T08:51:37.000Z,100
2023-01-27T08:52:53.000Z,100
2023-01-27T08:54:09.000Z,100
2023-01-27T08:55:25.000Z,100
2023-01-27T08:56:42.000Z,100
2023-01-27T08:57:58.000Z,100
2023-01-27T08:59:14.000Z,100
2023-01-27T09:00:30.000Z,100
2023-01-27T09:01:46.000Z,100
2023-01-27T09:03:03.000Z,100
2023-01-27T09:04:18.000Z,100
2023-01-27T09:05:34.000Z,100
2023-01-27T09:06:50.000Z,100
2023-01-27T09:08:07.000Z,100
2023-01-27T09:09:23.000Z,100
2023-01-27T09:10:39.000Z,100
2023-01-27T09:11:55.000Z,99.8
2023-01-27T09:13:12.000Z,99.9
2023-01-27T09:14:28.000Z,99.3
2023-01-27T09:15:44.000Z,99
2023-01-27T09:17:00.000Z,98.7
2023-01-27T09:18:17.000Z,98.8
2023-01-27T09:19:33.000Z,99
2023-01-27T09:20:48.000Z,98.6
2023-01-27T09:22:04.000Z,98.6
2023-01-27T09:23:21.000Z,98.6
2023-01-27T09:24:37.000Z,98.4
2023-01-27T09:25:53.000Z,98
2023-01-27T09:27:09.000Z,97.6
2023-01-27T09:28:25.000Z,97.5
2023-01-27T09:29:42.000Z,97.7
2023-01-27T09:30:58.000Z,97.3
2023-01-27T09:32:14.000Z,97.3
2023-01-27T09:33:30.000Z,96.9
2023-01-27T09:34:47.000Z,96.9
2023-01-27T09:36:03.000Z,96.7
2023-01-27T09:37:18.000Z,96.7
2023-01-27T09:38:34.000Z,96.8
2023-01-27T09:39:51.000Z,96.8
2023-01-27T09:41:07.000Z,96.7
2023-01-27T09:42:23.000Z,96.7
2023-01-27T09:43:39.000Z,96.7
2023-01-27T09:44:55.000Z,96.9
2023-01-27T09:46:12.000Z,96.7
2023-01-27T09:47:28.000Z,96.4
2023-01-27T09:48:44.000Z,96.6
2023-01-27T09:50:00.000Z,96.5
2023-01-27T09:51:17.000Z,95.9
2023-01-27T09:52:33.000Z,96.2
2023-01-27T09:53:48.000Z,96.6
2023-01-27T09:55:04.000Z,95.9
2023-01-27T09:56:21.000Z,95.7
2023-01-27T09:57:37.000Z,96
2023-01-27T09:58:53.000Z,96
2023-01-27T10:00:09.000Z,96
2023-01-27T10:01:26.000Z,95.8
2023-01-27T10:02:42.000Z,95.9
2023-01-27T10:03:58.000Z,95.8
2023-01-27T10:05:14.000Z,96
2023-01-27T10:06:30.000Z,96.5
2023-01-27T10:07:47.000Z,96
2023-01-27T10:09:03.000Z,95
2023-01-27T10:10:18.000Z,95.3
2023-01-27T10:11:34.000Z,95.4
2023-01-27T10:12:51.000Z,95.4
2023-01-27T10:14:07.000Z,95.5
2023-01-27T10:15:23.000Z,95.5
2023-01-27T10:16:39.000Z,95.4
2023-01-27T10:17:56.000Z,94.9
2023-01-27T10:19:12.000Z,95.1
2023-01-27T10:20:28.000Z,95
2023-01-27T10:21:44.000Z,94.6
2023-01-27T10:23:01.000Z,94.8
2023-01-27T10:24:17.000Z,95.2
2023-01-27T10:25:33.000Z,94.8
2023-01-27T10:26:48.000Z,94.7
2023-01-27T10:28:05.000Z,94.2
2023-01-27T10:29:21.000Z,94
2023-01-27T10:30:37.000Z,93.9
2023-01-27T10:31:53.000Z,94
2023-01-27T10:33:09.000Z,93.7
2023-01-27T10:34:26.000Z,93.6
2023-01-27T10:35:42.000Z,93.6
2023-01-27T10:36:58.000Z,93.6
2023-01-27T10:38:14.000Z,93.1
2023-01-27T10:39:31.000Z,92.8
2023-01-27T10:40:47.000Z,92.1
2023-01-27T10:42:03.000Z,92
2023-01-27T10:43:18.000Z,92.1
2023-01-27T10:44:35.000Z,92.5
2023-01-27T10:45:51.000Z,91.8
2023-01-27T10:47:07.000Z,92.3
2023-01-27T10:48:23.000Z,91.3
2023-01-27T10:49:39.000Z,91.2
2023-01-27T10:50:56.000Z,91.5
2023-01-27T10:52:12.000Z,92
2023-01-27T10:53:28.000Z,92
2023-01-27T10:54:44.000Z,92.4
2023-01-27T10:56:01.000Z,92.4
2023-01-27T10:57:17.000Z,92.3
2023-01-27T10:58:33.000Z,91.7
2023-01-27T10:59:48.000Z,92
2023-01-27T11:01:05.000Z,92.1
2023-01-27T11:02:21.000Z,92.2
2023-01-27T11:03:37.000Z,92.5
2023-01-27T11:04:53.000Z,92.8
2023-01-27T11:06:10.000Z,91.9
2023-01-27T11:07:26.000Z,91.8
2023-01-27T11:08:42.000Z,92.2
2023-01-27T11:09:58.000Z,92.5
2023-01-27T11:11:14.000Z,92.1
2023-01-27T11:12:31.000Z,92.2
2023-01-27T11:13:47.000Z,92.4
2023-01-27T11:15:03.000Z,92.6
2023-01-27T11:16:18.000Z,92.2
2023-01-27T11:17:35.000Z,92.5
2023-01-27T11:18:51.000Z,92.7
2023-01-27T11:20:07.000Z,92.1
2023-01-27T11:21:23.000Z,92.2
2023-01-27T11:22:40.000Z,91.9
2023-01-27T11:23:55.000Z,92.2
2023-01-27T11:25:11.000Z,92.4
2023-01-27T11:26:27.000Z,92
2023-01-27T11:27:44.000Z,91.5
2023-01-27T11:29:00.000Z,91.4
2023-01-27T11:30:16.000Z,91.1
2023-01-27T11:31:32.000Z,90.9
2023-01-27T11:32:49.000Z,90.8
2023-01-27T11:34:05.000Z,90.5
2023-01-27T11:35:21.000Z,90.9
2023-01-27T11:36:37.000Z,90.4
2023-01-27T11:37:53.000Z,90.7
2023-01-27T11:39:10.000Z,90.6
2023-01-27T11:40:25.000Z,90.3
2023-01-27T11:41:41.000Z,90.4
2023-01-27T11:42:57.000Z,90.3
2023-01-27T11:44:14.000Z,90.9
2023-01-27T11:45:30.000Z,90.8
2023-01-27T11:46:46.000Z,90.9
2023-01-27T11:48:02.000Z,90.9
2023-01-27T11:49:19.000Z,90.5
2023-01-27T11:50:35.000Z,90.8
2023-01-27T11:51:51.000Z,91.1
2023-01-27T11:53:07.000Z,91.1
2023-01-27T11:54:23.000Z,90.2
2023-01-27T11:55:40.000Z,90.6
2023-01-27T11:56:55.000Z,90.2
2023-01-27T11:58:11.000Z,90.3
2023-01-27T11:59:27.000Z,90.2
2023-01-27T12:00:44.000Z,90.1
2023-01-27T12:02:00.000Z,90.6
2023-01-27T12:03:16.000Z,90.2
2023-01-27T12:04:32.000Z,90.6
2023-01-27T12:05:49.000Z,90.3
2023-01-27T12:07:05.000Z,90
2023-01-27T12:08:21.000Z,90.1
2023-01-27T12:09:37.000Z,90.6
2023-01-27T12:10:54.000Z,90.3
2023-01-27T12:12:10.000Z,90.5
2023-01-27T12:13:25.000Z,90.5
2023-01-27T12:14:41.000Z,90.1
2023-01-27T12:15:58.000Z,89.2
2023-01-27T12:17:14.000Z,89.1
2023-01-27T12:18:30.000Z,88.9
2023-01-27T12:19:46.000Z,89.1
2023-01-27T12:21:02.000Z,88.7
2023-01-27T12:22:19.000Z,88.5
2023-01-27T12:23:35.000Z,88.6
2023-01-27T12:24:51.000Z,88.3
2023-01-27T12:26:07.000Z,88
2023-01-27T12:27:24.000Z,88.4
2023-01-27T12:28:40.000Z,88
2023-01-27T12:29:55.000Z,87.5
2023-01-27T12:31:11.000Z,87.3
2023-01-27T12:32:28.000Z,86.4
2023-01-27T12:33:44.000Z,86
2023-01-27T12:35:00.000Z,85.9
2023-01-27T12:36:16.000Z,85.6
2023-01-27T12:37:32.000Z,85.8
2023-01-27T12:38:49.000Z,85.7
2023-01-27T12:40:05.000Z,86
2023-01-27T12:41:21.000Z,86.3
2023-01-27T12:42:37.000Z,86.3
2023-01-27T12:43:54.000Z,86.3
2023-01-27T12:45:10.000Z,86.3
2023-01-27T12:46:25.000Z,86.3
2023-01-27T12:47:41.000Z,86.5
2023-01-27T12:48:58.000Z,86.6
2023-01-27T12:50:14.000Z,86.6
2023-01-27T12:51:30.000Z,86.8
2023-01-27T12:52:46.000Z,86.3
2023-01-27T12:54:03.000Z,86.8
2023-01-27T12:55:19.000Z,86.4
2023-01-27T12:56:35.000Z,86.1
2023-01-27T12:57:51.000Z,85.8
2023-01-27T12:59:07.000Z,86
2023-01-27T13:00:24.000Z,85.7
2023-01-27T13:01:40.000Z,85.7
2023-01-27T13:02:55.000Z,85.7
2023-01-27T13:04:11.000Z,86.1
2023-01-27T13:05:27.000Z,86.3
2023-01-27T13:06:42.000Z,86.3
2023-01-27T13:07:57.000Z,85.8
2023-01-27T13:09:12.000Z,85.9
2023-01-27T13:10:29.000Z,85.8
2023-01-27T13:11:45.000Z,86
2023-01-27T13:13:01.000Z,85.8
2023-01-27T13:14:17.000Z,85.4
2023-01-27T13:15:34.000Z,85
2023-01-27T13:16:50.000Z,85.2
2023-01-27T13:18:06.000Z,85.4
2023-01-27T13:19:22.000Z,85.3
2023-01-27T13:20:39.000Z,85.7
2023-01-27T13:21:55.000Z,85.8
2023-01-27T13:23:11.000Z,86
2023-01-27T13:24:27.000Z,86.5
2023-01-27T13:25:43.000Z,86.3
2023-01-27T13:26:59.000Z,86.1
2023-01-27T13:28:15.000Z,86.7
2023-01-27T13:29:31.000Z,86.7
2023-01-27T13:30:47.000Z,86.6
2023-01-27T13:32:04.000Z,87.1
2023-01-27T13:33:20.000Z,86.8
2023-01-27T13:34:36.000Z,87.1
2023-01-27T13:35:52.000Z,87.2
2023-01-27T13:37:09.000Z,87.3
2023-01-27T13:38:25.000Z,87.4
2023-01-27T13:39:41.000Z,87
2023-01-27T13:40:57.000Z,86.7
2023-01-27T13:42:13.000Z,86.6
2023-01-27T13:43:29.000Z,86.8
2023-01-27T13:44:45.000Z,86.6
2023-01-27T13:46:01.000Z,86.6
2023-01-27T13:47:18.000Z,86.1
2023-01-27T13:48:34.000Z,85.6
2023-01-27T13:49:50.000Z,85.6
2023-01-27T13:51:06.000Z,86
2023-01-27T13:52:22.000Z,85.9
2023-01-27T13:53:39.000Z,85.9
2023-01-27T13:54:55.000Z,85.4
2023-01-27T13:56:11.000Z,85.6
2023-01-27T13:57:27.000Z,85.7
2023-01-27T13:58:43.000Z,86.1
2023-01-27T13:59:59.000Z,86.5
2023-01-27T14:01:15.000Z,86.5
2023-01-27T14:02:31.000Z,87
2023-01-27T14:03:48.000Z,87.6
2023-01-27T14:05:04.000Z,87.7
2023-01-27T14:06:20.000Z,87.5
2023-01-27T14:07:36.000Z,87.8
2023-01-27T14:08:53.000Z,88
2023-01-27T14:10:09.000Z,87.8
2023-01-27T14:11:25.000Z,88.2
2023-01-27T14:12:41.000Z,88.2
2023-01-27T14:13:57.000Z,87.9
2023-01-27T14:15:13.000Z,88.1
2023-01-27T14:16:29.000Z,87.9
2023-01-27T14:17:45.000Z,87.9
2023-01-27T14:19:01.000Z,87.9
2023-01-27T14:20:18.000Z,88
2023-01-27T14:21:34.000Z,88.2
2023-01-27T14:22:50.000Z,88.1
2023-01-27T14:24:06.000Z,88.2
2023-01-27T14:25:23.000Z,88
2023-01-27T14:26:39.000Z,87.6
2023-01-27T14:27:55.000Z,87.7
2023-01-27T14:29:11.000Z,88
2023-01-27T14:30:28.000Z,88.1
2023-01-27T14:31:43.000Z,88.2
2023-01-27T14:32:59.000Z,88
2023-01-27T14:34:15.000Z,88.2
2023-01-27T14:35:31.000Z,88.7
2023-01-27T14:36:48.000Z,88.4
2023-01-27T14:38:04.000Z,88.4
2023-01-27T14:39:20.000Z,88.5
2023-01-27T14:40:36.000Z,88.1
2023-01-27T14:41:53.000Z,88
2023-01-27T14:43:09.000Z,88.1
2023-01-27T14:44:25.000Z,88.2
2023-01-27T14:45:41.000Z,87.7
2023-01-27T14:46:58.000Z,87.6
2023-01-27T14:48:13.000Z,88.2
2023-01-27T14:49:29.000Z,88.3
2023-01-27T14:50:45.000Z,88.2
2023-01-27T14:52:02.000Z,88
2023-01-27T14:53:18.000Z,88.1
2023-01-27T14:54:34.000Z,88.4
2023-01-27T14:55:50.000Z,88.4
2023-01-27T14:57:06.000Z,87.8
2023-01-27T14:58:23.000Z,87.8
2023-01-27T14:59:39.000Z,87.8
2023-01-27T15:00:55.000Z,87.8
2023-01-27T15:02:11.000Z,87.7
2023-01-27T15:03:28.000Z,88
2023-01-27T15:04:43.000Z,87.8
2023-01-27T15:05:59.000Z,88
2023-01-27T15:07:15.000Z,88.3
2023-01-27T15:09:48.000Z,88.6
2023-01-27T15:11:04.000Z,88.9
2023-01-27T15:12:20.000Z,89
2023-01-27T15:13:36.000Z,89
2023-01-27T15:14:51.000Z,89.3
2023-01-27T15:16:06.000Z,89.3
2023-01-27T15:17:21.000Z,89.3
2023-01-27T15:18:38.000Z,88.8
2023-01-27T15:19:54.000Z,88.9
2023-01-27T15:21:10.000Z,89.3
2023-01-27T15:22:26.000Z,89.2
2023-01-27T15:23:42.000Z,88.8
2023-01-27T15:24:59.000Z,88.7
2023-01-27T15:26:15.000Z,88.8
2023-01-27T15:27:31.000Z,88.6
2023-01-27T15:28:47.000Z,88.8
2023-01-27T15:30:04.000Z,88.5
2023-01-27T15:32:36.000Z,88.3
2023-01-27T15:33:51.000Z,88.4
2023-01-27T15:35:08.000Z,88.4
2023-01-27T15:36:24.000Z,88.4
2023-01-27T15:37:40.000Z,88.3
2023-01-27T15:38:55.000Z,88.5
2023-01-27T15:40:12.000Z,88.8
2023-01-27T15:41:28.000Z,88.8
2023-01-27T15:42:44.000Z,89.1
2023-01-27T15:43:59.000Z,89
2023-01-27T15:45:15.000Z,88.9
2023-01-27T15:46:31.000Z,88.6
2023-01-27T15:47:47.000Z,88.6
2023-01-27T15:49:03.000Z,88.7
2023-01-27T15:50:19.000Z,88.5
2023-01-27T15:51:34.000Z,88.9
2023-01-27T15:52:50.000Z,89.3
2023-01-27T15:54:06.000Z,89.5
2023-01-27T15:55:22.000Z,89.3
2023-01-27T15:56:39.000Z,89
2023-01-27T15:57:55.000Z,89
2023-01-27T15:59:11.000Z,89.2
2023-01-27T16:00:27.000Z,89.1
2023-01-27T16:01:44.000Z,89.2
2023-01-27T16:03:00.000Z,89.3
2023-01-27T16:04:16.000Z,89.4
2023-01-27T16:05:32.000Z,89.3
2023-01-27T16:06:49.000Z,89.1
2023-01-27T16:08:04.000Z,89.1
2023-01-27T16:09:20.000Z,89.3
2023-01-27T16:10:36.000Z,89.4
2023-01-27T16:11:53.000Z,89.1
2023-01-27T16:13:09.000Z,89.1
2023-01-27T16:14:25.000Z,89.4
2023-01-27T16:15:41.000Z,89.3
2023-01-27T16:16:57.000Z,89.3
2023-01-27T16:18:14.000Z,89.5
2023-01-27T16:19:30.000Z,89.4
2023-01-27T16:20:46.000Z,89.4
2023-01-27T16:22:02.000Z,89.3
2023-01-27T16:23:19.000Z,89.4
2023-01-27T16:24:34.000Z,89.3
2023-01-27T16:25:50.000Z,89.4
2023-01-27T16:27:06.000Z,89.8
2023-01-27T16:28:23.000Z,89.8
2023-01-27T16:29:39.000Z,89.8
2023-01-27T16:30:55.000Z,89.8
2023-01-27T16:32:11.000Z,89.6
2023-01-27T16:33:28.000Z,89.5
2023-01-27T16:34:44.000Z,89.6
2023-01-27T16:36:00.000Z,89.3
2023-01-27T16:37:16.000Z,89.5
2023-01-27T16:38:32.000Z,89.6
2023-01-27T16:39:49.000Z,89.8
2023-01-27T16:41:04.000Z,89.8
2023-01-27T16:42:20.000Z,89.8
2023-01-27T16:43:36.000Z,89.8
2023-01-27T16:44:53.000Z,89.3
2023-01-27T16:46:09.000Z,90.1
2023-01-27T16:47:25.000Z,90
2023-01-27T16:48:41.000Z,89.8
2023-01-27T16:49:58.000Z,89.4
2023-01-27T16:51:14.000Z,89.6
2023-01-27T16:52:30.000Z,89.5
2023-01-27T16:53:46.000Z,89.6
2023-01-27T16:55:03.000Z,90
2023-01-27T16:56:18.000Z,89.8
2023-01-27T16:57:33.000Z,90.1
2023-01-27T16:58:49.000Z,90.1
2023-01-27T17:00:05.000Z,90.3
2023-01-27T17:01:20.000Z,90.3
2023-01-27T17:02:36.000Z,90.5
2023-01-27T17:03:52.000Z,90.7
2023-01-27T17:05:08.000Z,90.8
2023-01-27T17:06:25.000Z,90.8
2023-01-27T17:07:41.000Z,90.8
2023-01-27T17:08:57.000Z,90.7
2023-01-27T17:10:13.000Z,90.7
2023-01-27T17:11:30.000Z,90.7
2023-01-27T17:12:46.000Z,90.9
2023-01-27T17:14:02.000Z,91
2023-01-27T17:15:18.000Z,90.8
2023-01-27T17:16:35.000Z,91.1
2023-01-27T17:17:50.000Z,91.1
2023-01-27T17:19:06.000Z,91.2
2023-01-27T17:20:22.000Z,91.2
2023-01-27T17:21:39.000Z,91.3
2023-01-27T17:22:55.000Z,91.2
2023-01-27T17:24:11.000Z,91.1